createdAt,value
2023-03-05T00:01:51.597Z,-3.08
2023-03-05T00:04:21.810Z,-3.03
2023-03-05T00:06:53.424Z,-3.06
2023-03-05T00:09:23.146Z,-3.00
2023-03-05T00:11:53.161Z,-3.02
2023-03-05T00:14:22.913Z,-3.01
2023-03-05T00:16:52.894Z,-2.94
2023-03-05T00:19:22.629Z,-3.04
2023-03-05T00:21:54.139Z,-3.05
2023-03-05T00:24:23.690Z,-3.11
2023-03-05T00:26:53.778Z,-3.13
2023-03-05T00:29:23.739Z,-3.13
2023-03-05T00:31:53.862Z,-3.14
2023-03-05T00:34:23.970Z,-3.14
2023-03-05T00:36:55.682Z,-3.18
2023-03-05T00:39:25.306Z,-3.21
2023-03-05T00:41:55.387Z,-3.26
2023-03-05T00:44:25.153Z,-3.23
2023-03-05T00:46:55.229Z,-3.21
2023-03-05T00:49:24.982Z,-3.25
2023-03-05T00:51:56.380Z,-3.18
2023-03-05T00:54:26.842Z,-2.85
2023-03-05T00:56:56.976Z,-2.72
2023-03-05T00:59:26.732Z,-2.52
2023-03-05T01:01:56.860Z,-2.43
2023-03-05T01:04:26.529Z,-2.44
2023-03-05T01:06:57.931Z,-2.46
2023-03-05T01:09:27.667Z,-2.51
2023-03-05T01:11:57.884Z,-2.46
2023-03-05T01:14:28.238Z,-2.53
2023-03-05T01:16:58.319Z,-2.51
2023-03-05T01:19:27.889Z,-2.36
2023-03-05T01:21:59.333Z,-2.29
2023-03-05T01:24:29.062Z,-2.26
2023-03-05T01:26:59.221Z,-2.32
2023-03-05T01:29:29.253Z,-2.40
2023-03-05T01:31:59.322Z,-2.42
2023-03-05T01:34:29.179Z,-2.53
2023-03-05T01:37:00.928Z,-2.59
2023-03-05T01:39:30.840Z,-2.63
2023-03-05T01:42:00.772Z,-2.69
2023-03-05T01:44:31.531Z,-2.80
2023-03-05T01:47:01.835Z,-2.89
2023-03-05T01:49:32.569Z,-2.89
2023-03-05T01:52:08.201Z,-2.94
2023-03-05T01:54:40.569Z,-3.00
2023-03-05T01:57:12.680Z,-3.06
2023-03-05T01:59:44.099Z,-3.07
2023-03-05T02:02:14.939Z,-3.12
2023-03-05T02:04:46.950Z,-3.19
2023-03-05T02:07:19.228Z,-3.29
2023-03-05T02:09:49.025Z,-3.36
2023-03-05T02:12:19.429Z,-3.49
2023-03-05T02:14:50.616Z,-3.55
2023-03-05T02:17:20.752Z,-3.64
2023-03-05T02:19:51.803Z,-3.65
2023-03-05T02:22:25.153Z,-3.51
2023-03-05T02:24:54.980Z,-3.53
2023-03-05T02:27:35.084Z,-3.54
2023-03-05T02:30:05.294Z,-3.66
2023-03-05T02:32:35.312Z,-3.70
2023-03-05T02:35:05.595Z,-3.69
2023-03-05T02:37:37.873Z,-3.54
2023-03-05T02:40:09.590Z,-3.41
2023-03-05T02:42:39.671Z,-3.37
2023-03-05T02:45:11.085Z,-3.41
2023-03-05T02:47:41.371Z,-3.42
2023-03-05T02:50:12.603Z,-3.32
2023-03-05T02:52:44.306Z,-3.21
2023-03-05T02:55:17.585Z,-3.23
2023-03-05T02:57:47.714Z,-3.11
2023-03-05T03:00:17.881Z,-3.15
2023-03-05T03:02:47.937Z,-3.16
2023-03-05T03:05:17.742Z,-3.22
2023-03-05T03:07:49.523Z,-3.16
2023-03-05T03:10:19.243Z,-3.23
2023-03-05T03:12:49.382Z,-3.29
2023-03-05T03:15:19.142Z,-3.25
2023-03-05T03:17:49.232Z,-3.24
2023-03-05T03:20:20.083Z,-3.22
2023-03-05T03:22:51.677Z,-3.16
2023-03-05T03:25:23.279Z,-3.17
2023-03-05T03:27:55.168Z,-3.21
2023-03-05T03:30:24.866Z,-3.23
2023-03-05T03:32:54.886Z,-3.18
2023-03-05T03:35:24.612Z,-3.16
2023-03-05T03:37:56.127Z,-3.11
2023-03-05T03:40:26.090Z,-3.04
2023-03-05T03:42:56.312Z,-2.95
2023-03-05T03:45:25.973Z,-2.79
2023-03-05T03:47:55.963Z,-2.59
2023-03-05T03:50:26.409Z,-2.61
2023-03-05T03:52:57.831Z,-2.55
2023-03-05T03:55:27.576Z,-2.55
2023-03-05T03:57:57.600Z,-2.64
2023-03-05T04:00:27.308Z,-2.78
2023-03-05T04:02:57.361Z,-2.82
2023-03-05T04:05:27.361Z,-2.90
2023-03-05T04:08:00.194Z,-3.00
2023-03-05T04:10:29.907Z,-3.03
2023-03-05T04:12:59.862Z,-3.13
2023-03-05T04:15:31.293Z,-3.15
2023-03-05T04:18:01.644Z,-3.17
2023-03-05T04:20:31.575Z,-3.25
2023-03-05T04:23:03.067Z,-3.31
2023-03-05T04:25:32.724Z,-3.41
2023-03-05T04:28:02.590Z,-3.49
2023-03-05T04:30:33.131Z,-3.55
2023-03-05T04:33:03.109Z,-3.65
2023-03-05T04:35:33.186Z,-3.65
2023-03-05T04:38:04.827Z,-3.69
2023-03-05T04:40:34.795Z,-3.69
2023-03-05T04:43:05.395Z,-3.65
2023-03-05T04:45:35.578Z,-3.70
2023-03-05T04:48:05.787Z,-3.72
2023-03-05T04:50:35.407Z,-3.80
2023-03-05T04:53:06.823Z,-3.81
2023-03-05T04:55:36.434Z,-3.86
2023-03-05T04:58:06.582Z,-3.89
2023-03-05T05:00:36.420Z,-3.94
2023-03-05T05:03:06.547Z,-3.92
2023-03-05T05:05:36.241Z,-4.02
2023-03-05T05:08:08.143Z,-4.09
2023-03-05T05:10:39.942Z,-4.10
2023-03-05T05:13:09.997Z,-4.11
2023-03-05T05:15:41.789Z,-4.12
2023-03-05T05:18:11.888Z,-4.18
2023-03-05T05:20:41.846Z,-4.16
2023-03-05T05:23:13.380Z,-4.18
2023-03-05T05:25:44.035Z,-4.24
2023-03-05T05:28:14.575Z,-4.33
2023-03-05T05:30:44.546Z,-4.42
2023-03-05T05:33:14.760Z,-4.47
2023-03-05T05:35:44.651Z,-4.50
2023-03-05T05:38:16.260Z,-4.52
2023-03-05T05:40:45.993Z,-4.47
2023-03-05T05:43:15.831Z,-4.47
2023-03-05T05:45:45.666Z,-4.46
2023-03-05T05:48:15.712Z,-4.51
2023-03-05T05:50:45.345Z,-4.60
2023-03-05T05:53:17.084Z,-4.66
2023-03-05T05:55:47.061Z,-4.74
2023-03-05T05:58:17.173Z,-4.74
2023-03-05T06:00:46.938Z,-4.74
2023-03-05T06:03:16.944Z,-4.78
2023-03-05T06:05:47.882Z,-4.83
2023-03-05T06:08:19.703Z,-4.92
2023-03-05T06:10:55.224Z,-4.97
2023-03-05T06:13:25.416Z,-4.99
2023-03-05T06:15:59.144Z,-5.00
2023-03-05T06:18:29.566Z,-4.97
2023-03-05T06:20:59.582Z,-4.93
2023-03-05T06:23:30.992Z,-4.93
2023-03-05T06:26:01.401Z,-4.83
2023-03-05T06:28:32.194Z,-4.55
2023-03-05T06:31:02.940Z,-4.13
2023-03-05T06:33:33.669Z,-3.83
2023-03-05T06:36:04.913Z,-3.66
2023-03-05T06:38:35.971Z,-3.52
2023-03-05T06:41:11.812Z,-3.30
2023-03-05T06:43:42.802Z,-3.12
2023-03-05T06:46:13.948Z,-3.01
2023-03-05T06:48:44.439Z,-2.86
2023-03-05T06:51:15.241Z,-2.77
2023-03-05T06:53:47.724Z,-2.48
2023-03-05T06:56:20.753Z,-2.26
2023-03-05T06:58:51.780Z,-2.08
2023-03-05T07:01:21.864Z,-2.06
2023-03-05T07:03:52.763Z,-1.84
2023-03-05T07:06:23.170Z,-1.79
2023-03-05T07:08:56.204Z,-1.66
2023-03-05T07:11:27.295Z,-1.52
2023-03-05T07:13:57.362Z,-1.47
2023-03-05T07:16:28.283Z,-1.30
2023-03-05T07:18:59.321Z,-1.24
2023-03-05T07:21:31.907Z,-1.15
2023-03-05T07:24:05.668Z,-1.00
2023-03-05T07:26:36.799Z,-0.93
2023-03-05T07:29:06.911Z,-0.83
2023-03-05T07:31:37.330Z,-0.21
2023-03-05T07:34:08.529Z,0.90
2023-03-05T07:36:39.679Z,1.51
2023-03-05T07:39:10.917Z,2.03
2023-03-05T07:41:42.451Z,2.27
2023-03-05T07:44:14.902Z,2.63
2023-03-05T07:46:46.023Z,2.70
2023-03-05T07:49:16.195Z,2.57
2023-03-05T07:51:47.242Z,2.86
2023-03-05T07:54:17.380Z,2.85
2023-03-05T07:56:49.259Z,3.36
2023-03-05T07:59:19.427Z,2.82
2023-03-05T08:01:49.096Z,3.61
2023-03-05T08:04:21.339Z,3.69
2023-03-05T08:06:51.393Z,3.65
2023-03-05T08:09:21.382Z,4.02
2023-03-05T08:11:52.735Z,3.58
2023-03-05T08:14:24.180Z,3.99
2023-03-05T08:16:54.039Z,4.15
2023-03-05T08:19:26.802Z,3.60
2023-03-05T08:21:58.782Z,3.35
2023-03-05T08:24:29.994Z,4.14
2023-03-05T08:27:01.826Z,4.11
2023-03-05T08:29:32.096Z,4.74
2023-03-05T08:32:01.971Z,4.65
2023-03-05T08:34:32.244Z,4.81
2023-03-05T08:37:02.012Z,4.82
2023-03-05T08:39:32.144Z,4.56
2023-03-05T08:42:03.431Z,4.50
2023-03-05T08:44:33.454Z,4.17
2023-03-05T08:47:03.370Z,4.82
2023-03-05T08:49:35.040Z,5.76
2023-03-05T08:52:08.503Z,4.63
2023-03-05T08:54:40.462Z,3.49
2023-03-05T08:57:12.592Z,4.18
2023-03-05T08:59:44.920Z,4.16
2023-03-05T09:02:14.972Z,3.99
2023-03-05T09:04:45.498Z,3.24
2023-03-05T09:07:15.323Z,4.12
2023-03-05T09:09:46.291Z,5.36
2023-03-05T09:12:17.686Z,4.22
2023-03-05T09:14:48.138Z,3.78
2023-03-05T09:17:17.992Z,3.93
2023-03-05T09:19:48.582Z,3.47
2023-03-05T09:22:18.245Z,3.89
2023-03-05T09:24:48.694Z,3.76
2023-03-05T09:27:21.003Z,3.49
2023-03-05T09:29:53.574Z,3.14
2023-03-05T09:32:23.320Z,2.86
2023-03-05T09:34:53.662Z,2.77
2023-03-05T09:37:23.800Z,2.96
2023-03-05T09:39:54.219Z,2.82
2023-03-05T09:42:30.830Z,2.34
2023-03-05T09:45:09.292Z,3.15
2023-03-05T09:47:47.261Z,3.06
2023-03-05T09:50:25.522Z,2.92
2023-03-05T09:52:56.278Z,3.12
2023-03-05T09:55:27.711Z,2.59
2023-03-05T09:58:03.980Z,1.89
2023-03-05T10:00:37.991Z,2.02
2023-03-05T10:03:15.097Z,2.47
2023-03-05T10:05:49.550Z,2.63
2023-03-05T10:08:27.170Z,2.72
2023-03-05T10:11:01.422Z,2.98
2023-03-05T10:13:40.612Z,3.29
2023-03-05T10:16:27.410Z,3.35
2023-03-05T10:19:01.822Z,2.74
2023-03-05T10:21:36.253Z,2.72
2023-03-05T10:24:13.868Z,2.77
2023-03-05T10:29:54.997Z,2.83
2023-03-05T10:32:39.037Z,3.06
2023-03-05T10:35:26.567Z,2.93
2023-03-05T10:38:24.118Z,3.19
2023-03-05T10:40:56.262Z,3.05
2023-03-05T10:43:32.785Z,3.23
2023-03-05T10:46:09.780Z,3.51
2023-03-05T10:48:45.642Z,2.88
2023-03-05T10:51:19.825Z,2.46
2023-03-05T10:53:54.195Z,2.04
2023-03-05T10:56:25.788Z,2.21
2023-03-05T10:58:56.406Z,2.77
2023-03-05T11:01:28.401Z,2.99
2023-03-05T11:04:05.949Z,3.23
2023-03-05T11:06:38.433Z,3.23
2023-03-05T11:09:29.821Z,2.80
2023-03-05T11:12:10.872Z,2.68
2023-03-05T11:14:44.121Z,2.38
2023-03-05T11:17:31.580Z,2.52
2023-03-05T11:20:17.377Z,2.70
2023-03-05T11:23:03.789Z,2.47
2023-03-05T11:25:34.698Z,2.62
2023-03-05T11:28:05.758Z,3.03
2023-03-05T11:30:41.416Z,3.18
2023-03-05T11:33:12.768Z,3.15
2023-03-05T11:35:46.321Z,3.36
2023-03-05T11:38:21.078Z,3.29
2023-03-05T11:40:51.426Z,3.10
2023-03-05T11:43:23.796Z,2.62
2023-03-05T11:45:55.814Z,2.63
2023-03-05T11:48:27.569Z,2.64
2023-03-05T11:50:59.608Z,2.55
2023-03-05T11:53:36.075Z,2.56
2023-03-05T11:56:14.348Z,2.60
2023-03-05T11:58:48.154Z,2.75
2023-03-05T12:01:19.767Z,2.81
2023-03-05T12:03:51.891Z,2.91
2023-03-05T12:06:25.534Z,3.10
2023-03-05T12:08:57.944Z,3.19
2023-03-05T12:11:30.503Z,3.18
2023-03-05T12:14:04.284Z,2.77
2023-03-05T12:16:38.376Z,2.90
2023-03-05T12:19:39.246Z,3.14
2023-03-05T12:22:18.092Z,3.10
2023-03-05T12:24:49.906Z,3.08
2023-03-05T12:27:34.283Z,3.10
2023-03-05T12:30:05.457Z,3.31
2023-03-05T12:33:02.755Z,3.20
2023-03-05T12:35:36.412Z,2.88
2023-03-05T12:38:26.871Z,2.83
2023-03-05T12:41:28.585Z,3.37
2023-03-05T12:44:19.055Z,3.49
2023-03-05T12:47:04.106Z,3.37
2023-03-05T12:49:40.311Z,3.63
2023-03-05T12:52:19.967Z,4.05
2023-03-05T12:54:59.637Z,4.58
2023-03-05T12:57:34.698Z,4.57
2023-03-05T13:00:14.608Z,4.56
2023-03-05T13:02:47.654Z,3.68
2023-03-05T13:05:23.267Z,2.98
2023-03-05T13:07:53.617Z,2.84
2023-03-05T13:10:25.650Z,2.97
2023-03-05T13:12:56.781Z,2.97
2023-03-05T13:15:28.731Z,3.23
2023-03-05T13:18:01.598Z,3.36
2023-03-05T13:20:38.227Z,2.88
2023-03-05T13:23:24.451Z,2.92
2023-03-05T13:26:06.856Z,2.25
2023-03-05T13:28:41.896Z,2.20
2023-03-05T13:31:41.330Z,2.19
2023-03-05T13:34:40.858Z,2.74
2023-03-05T13:37:26.430Z,3.07
2023-03-05T13:40:05.945Z,3.14
2023-03-05T13:42:41.020Z,3.11
2023-03-05T13:45:25.828Z,3.09
2023-03-05T13:48:02.334Z,2.97
2023-03-05T13:50:41.879Z,3.03
2023-03-05T13:53:21.778Z,2.98
2023-03-05T13:56:03.298Z,2.67
2023-03-05T13:58:48.074Z,2.55
2023-03-05T14:01:38.745Z,2.68
2023-03-05T14:04:23.877Z,2.65
2023-03-05T14:10:34.632Z,2.49
2023-03-05T14:13:06.384Z,2.68
2023-03-05T14:15:37.799Z,2.80
2023-03-05T14:18:19.610Z,2.83
2023-03-05T14:21:09.542Z,2.80
2023-03-05T14:24:00.345Z,2.76
2023-03-05T14:26:37.878Z,2.87
2023-03-05T14:29:23.782Z,2.48
2023-03-05T14:32:00.028Z,2.56
2023-03-05T14:34:36.378Z,2.53
2023-03-05T14:37:24.151Z,2.53
2023-03-05T14:39:59.828Z,2.46
2023-03-05T14:42:39.251Z,2.38
2023-03-05T14:45:15.102Z,2.33
2023-03-05T14:47:46.960Z,2.25
2023-03-05T14:50:20.452Z,2.25
2023-03-05T14:52:56.651Z,2.28
2023-03-05T14:55:32.341Z,2.29
2023-03-05T14:58:11.927Z,2.30
2023-03-05T15:00:49.468Z,2.13
2023-03-05T15:03:48.835Z,2.16
2023-03-05T15:06:26.300Z,2.12
2023-03-05T15:09:01.799Z,2.11
2023-03-05T15:11:34.626Z,2.14
2023-03-05T15:14:11.945Z,2.15
2023-03-05T15:16:49.942Z,2.09
2023-03-05T15:19:26.345Z,1.98
2023-03-05T15:22:02.159Z,1.86
2023-03-05T15:24:37.651Z,1.80
2023-03-05T15:27:13.489Z,1.77
2023-03-05T15:29:46.107Z,1.73
2023-03-05T15:32:19.396Z,1.73
2023-03-05T15:34:54.831Z,1.68
2023-03-05T15:37:32.283Z,1.66
2023-03-05T15:40:06.475Z,1.65
2023-03-05T15:42:43.075Z,1.48
2023-03-05T15:45:15.396Z,1.45
2023-03-05T15:47:51.975Z,1.41
2023-03-05T15:50:28.817Z,1.31
2023-03-05T15:53:03.782Z,1.27
2023-03-05T15:55:40.132Z,1.27
2023-03-05T15:58:17.087Z,1.11
2023-03-05T16:00:49.848Z,1.10
2023-03-05T16:03:23.826Z,1.05
2023-03-05T16:05:55.365Z,0.98
2023-03-05T16:08:30.513Z,0.88
2023-03-05T16:11:06.112Z,0.84
2023-03-05T16:13:38.736Z,0.74
2023-03-05T16:16:11.811Z,0.71
2023-03-05T16:18:46.162Z,0.63
2023-03-05T16:21:18.279Z,0.57
2023-03-05T16:23:50.134Z,0.50
2023-03-05T16:26:21.440Z,0.34
2023-03-05T16:28:51.784Z,0.34
2023-03-05T16:31:21.654Z,0.33
2023-03-05T16:33:51.847Z,0.30
2023-03-05T16:36:26.456Z,0.23
2023-03-05T16:38:57.777Z,0.15
2023-03-05T16:41:29.508Z,0.12
2023-03-05T16:44:00.639Z,0.15
2023-03-05T16:46:34.905Z,0.14
2023-03-05T16:49:05.729Z,0.03
2023-03-05T16:51:36.722Z,-0.08
2023-03-05T16:54:09.605Z,-0.16
2023-03-05T16:56:41.258Z,-0.25
2023-03-05T16:59:11.985Z,-0.36
2023-03-05T17:01:42.336Z,-0.37
2023-03-05T17:04:12.923Z,-0.37
2023-03-05T17:06:43.059Z,-0.51
2023-03-05T17:09:13.336Z,-0.55
2023-03-05T17:11:44.401Z,-0.56
2023-03-05T17:14:14.601Z,-0.55
2023-03-05T17:16:49.490Z,-0.51
2023-03-05T17:19:25.581Z,-0.55
2023-03-05T17:21:57.993Z,-0.58
2023-03-05T17:24:38.237Z,-0.65
2023-03-05T17:27:40.215Z,-0.71
2023-03-05T17:30:22.424Z,-0.84
2023-03-05T17:32:53.920Z,-0.90
2023-03-05T17:35:25.364Z,-0.99
2023-03-05T17:37:56.812Z,-1.06
2023-03-05T17:40:27.130Z,-1.14
2023-03-05T17:42:58.352Z,-1.23
2023-03-05T17:45:28.860Z,-1.36
2023-03-05T17:47:58.978Z,-1.44
2023-03-05T17:50:29.103Z,-1.42
2023-03-05T17:52:58.660Z,-1.43
2023-03-05T17:55:29.173Z,-1.42
2023-03-05T17:58:00.457Z,-1.40
2023-03-05T18:00:31.561Z,-1.39
2023-03-05T18:03:01.415Z,-1.37
2023-03-05T18:05:33.941Z,-1.35
2023-03-05T18:08:04.062Z,-1.35
2023-03-05T18:10:34.262Z,-1.34
2023-03-05T18:13:05.711Z,-1.43
2023-03-05T18:15:37.603Z,-1.45
2023-03-05T18:18:07.661Z,-1.44
2023-03-05T18:20:38.711Z,-1.48
2023-03-05T18:23:08.757Z,-1.56
2023-03-05T18:25:41.174Z,-1.58
2023-03-05T18:28:14.673Z,-1.61
2023-03-05T18:30:48.059Z,-1.60
2023-03-05T18:33:21.082Z,-1.63
2023-03-05T18:35:53.579Z,-1.64
2023-03-05T18:38:28.125Z,-1.57
2023-03-05T18:40:59.568Z,-1.56
2023-03-05T18:43:31.585Z,-1.59
2023-03-05T18:46:06.042Z,-1.62
2023-03-05T18:48:38.597Z,-1.60
2023-03-05T18:51:16.191Z,-1.64
2023-03-05T18:53:48.926Z,-1.67
2023-03-05T18:56:29.206Z,-1.58
2023-03-05T18:59:02.873Z,-1.55
2023-03-05T19:01:33.022Z,-1.60
2023-03-05T19:04:05.477Z,-1.62
2023-03-05T19:06:39.430Z,-1.57
2023-03-05T19:09:59.532Z,-1.53
2023-03-05T19:12:58.380Z,-1.47
2023-03-05T19:15:53.782Z,-1.52
2023-03-05T19:19:05.906Z,-1.52
2023-03-05T19:21:51.179Z,-1.58
2023-03-05T19:24:27.842Z,-1.57
2023-03-05T19:27:04.912Z,-1.60
2023-03-05T19:29:54.817Z,-1.58
2023-03-05T19:32:34.798Z,-1.59
2023-03-05T19:36:02.608Z,-1.58
2023-03-05T19:39:07.237Z,-1.63
2023-03-05T19:42:47.069Z,-1.65
2023-03-05T19:46:20.270Z,-1.71
2023-03-05T19:49:18.991Z,-1.57
2023-03-05T19:52:17.251Z,-1.59
2023-03-05T19:55:13.784Z,-1.65
2023-03-05T19:57:57.883Z,-1.71
2023-03-05T20:00:46.369Z,-1.71
2023-03-05T20:03:21.171Z,-1.59
2023-03-05T20:06:08.004Z,-1.59
2023-03-05T20:08:46.817Z,-1.58
2023-03-05T20:11:28.717Z,-1.53
2023-03-05T20:14:09.149Z,-1.43
2023-03-05T20:17:07.538Z,-1.57
2023-03-05T20:19:57.368Z,-1.66
2023-03-05T20:23:29.893Z,-1.67
2023-03-05T20:26:17.818Z,-1.67
2023-03-05T20:29:04.707Z,-1.68
2023-03-05T20:31:57.811Z,-1.68
2023-03-05T20:34:41.665Z,-1.76
2023-03-05T20:37:36.003Z,-1.73
2023-03-05T20:41:05.385Z,-1.79
2023-03-05T20:43:47.263Z,-1.77
2023-03-05T20:46:34.805Z,-1.75
2023-03-05T20:49:38.425Z,-1.76
2023-03-05T20:52:31.178Z,-1.84
2023-03-05T20:55:16.239Z,-1.79
2023-03-05T20:57:57.766Z,-1.91
2023-03-05T21:00:43.391Z,-1.91
2023-03-05T21:03:26.586Z,-1.98
2023-03-05T21:06:05.505Z,-1.96
2023-03-05T21:08:41.368Z,-1.99
2023-03-05T21:11:14.406Z,-2.06
2023-03-05T21:13:51.938Z,-2.05
2023-03-05T21:16:24.085Z,-2.11
2023-03-05T21:18:56.689Z,-2.15
2023-03-05T21:21:26.798Z,-2.15
2023-03-05T21:23:58.539Z,-2.20
2023-03-05T21:26:30.637Z,-2.20
2023-03-05T21:29:06.468Z,-2.18
2023-03-05T21:31:39.422Z,-2.21
2023-03-05T21:34:09.482Z,-2.24
2023-03-05T21:36:39.869Z,-2.28
2023-03-05T21:39:11.852Z,-2.31
2023-03-05T21:41:42.596Z,-2.41
2023-03-05T21:44:19.201Z,-2.50
2023-03-05T21:46:51.413Z,-2.48
2023-03-05T21:49:21.597Z,-2.60
2023-03-05T21:52:11.908Z,-2.62
2023-03-05T21:54:43.256Z,-2.72
2023-03-05T21:57:13.464Z,-2.76
2023-03-05T21:59:47.462Z,-2.80
2023-03-05T22:02:20.341Z,-2.65
2023-03-05T22:04:51.453Z,-2.68
2023-03-05T22:07:21.848Z,-2.68
2023-03-05T22:09:55.775Z,-2.67
2023-03-05T22:12:50.792Z,-2.67
2023-03-05T22:15:27.779Z,-2.67
2023-03-05T22:17:57.443Z,-2.66
2023-03-05T22:20:27.482Z,-2.68
2023-03-05T22:22:57.228Z,-2.76
2023-03-05T22:25:27.195Z,-2.75
2023-03-05T22:27:57.305Z,-2.76
2023-03-05T22:30:28.968Z,-2.84
2023-03-05T22:32:58.647Z,-2.79
2023-03-05T22:35:28.722Z,-2.85
2023-03-05T22:37:59.173Z,-2.85
2023-03-05T22:40:29.248Z,-2.88
2023-03-05T22:42:58.988Z,-2.87
2023-03-05T22:45:30.664Z,-2.87
2023-03-05T22:48:00.457Z,-2.86
2023-03-05T22:50:30.796Z,-2.93
2023-03-05T22:53:00.764Z,-2.93
2023-03-05T22:55:30.837Z,-2.97
2023-03-05T22:58:00.446Z,-3.01
2023-03-05T23:00:32.319Z,-3.01
2023-03-05T23:03:02.204Z,-3.09
2023-03-05T23:05:32.436Z,-3.01
2023-03-05T23:08:01.991Z,-3.04
2023-03-05T23:10:31.915Z,-3.08
2023-03-05T23:13:01.948Z,-3.11
2023-03-05T23:15:34.901Z,-3.25
2023-03-05T23:18:06.574Z,-3.34
2023-03-05T23:20:37.723Z,-3.23
2023-03-05T23:23:07.310Z,-3.30
2023-03-05T23:25:37.716Z,-3.32
2023-03-05T23:28:07.360Z,-3.29
2023-03-05T23:30:39.757Z,-3.25
2023-03-05T23:33:12.358Z,-3.26
2023-03-05T23:35:44.129Z,-3.11
2023-03-05T23:38:14.693Z,-3.12
2023-03-05T23:40:45.724Z,-3.06
2023-03-05T23:43:16.345Z,-3.05
2023-03-05T23:45:49.195Z,-3.01
2023-03-05T23:48:18.903Z,-3.03
2023-03-05T23:50:49.383Z,-3.07
2023-03-05T23:53:20.171Z,-3.11
2023-03-05T23:55:50.269Z,-3.13
2023-03-05T23:58:20.497Z,-3.18
